CheckWX is a tool to help pilots better visualize weather data.  It is not intended as a substitute for an official pre-flight weather briefing.

15:43:26 UTC

CYQX METAR
Gander International Airport
Gander, Canada
Current

43 mins ago

CYQX 201500Z 32016G24KT 15SM BKN019 OVC026 05/01 A2988 RMK SC6SC2 SLP125
Observed
May-20 @ 15:00 UTC
Wind
  • 320° at 16 KTS
  • Gusting to 24 KTS
Visibility
15 SM
Flight Rules
MVFR
Cloud Levels
  • Broken at 1,900' AGL
  • Overcast at 2,600' AGL
Temperature
C / 41°F
Dewpoint
C / 34°F
Humidity
76%
Altimeter
29.88" Hg
Pressure
1011.82 hPa
Previous

2 hours ago

CYQX 201400Z 33018G27KT 15SM SCT015 OVC021 04/01 A2987 RMK SC3SC5 SLP123
Observed
May-20 @ 14:00 UTC
Wind
  • 330° at 18 KTS
  • Gusting to 27 KTS
Visibility
15 SM
Flight Rules
MVFR
Cloud Levels
  • Scattered at 1,500' AGL
  • Overcast at 2,100' AGL
Temperature
C / 39°F
Dewpoint
C / 34°F
Humidity
81%
Altimeter
29.87" Hg
Pressure
1011.52 hPa
Previous

3 hours ago

CYQX 201300Z 33019G26KT 15SM FEW014 OVC019 03/01 A2986 RMK SC2SC6 SLP120
Observed
May-20 @ 13:00 UTC
Wind
  • 330° at 19 KTS
  • Gusting to 26 KTS
Visibility
15 SM
Flight Rules
MVFR
Cloud Levels
  • Few at 1,400' AGL
  • Overcast at 1,900' AGL
Temperature
C / 37°F
Dewpoint
C / 34°F
Humidity
87%
Altimeter
29.86" Hg
Pressure
1011.22 hPa